sensor_id;sensor_type;location;lat;lon;timestamp;P1;durP1;ratioP1;P2;durP2;ratioP2
39958;SDS011;25639;53.634;9.880;2022-07-01T00:01:25;15.85;;;6.07;;
39958;SDS011;25639;53.634;9.880;2022-07-01T00:03:50;13.60;;;4.45;;
39958;SDS011;25639;53.634;9.880;2022-07-01T00:06:18;7.97;;;4.43;;
39958;SDS011;25639;53.634;9.880;2022-07-01T00:08:44;7.80;;;3.78;;
39958;SDS011;25639;53.634;9.880;2022-07-01T00:11:10;10.23;;;4.28;;
39958;SDS011;25639;53.634;9.880;2022-07-01T00:13:36;10.80;;;3.97;;
39958;SDS011;25639;53.634;9.880;2022-07-01T00:16:01;8.40;;;3.65;;
39958;SDS011;25639;53.634;9.880;2022-07-01T00:18:27;16.02;;;3.70;;
39958;SDS011;25639;53.634;9.880;2022-07-01T00:20:52;7.80;;;2.90;;
39958;SDS011;25639;53.634;9.880;2022-07-01T00:23:18;6.22;;;2.88;;
39958;SDS011;25639;53.634;9.880;2022-07-01T00:25:44;5.72;;;2.40;;
39958;SDS011;25639;53.634;9.880;2022-07-01T00:28:10;5.10;;;2.78;;
39958;SDS011;25639;53.634;9.880;2022-07-01T00:30:36;7.60;;;2.85;;
39958;SDS011;25639;53.634;9.880;2022-07-01T00:33:01;7.00;;;3.17;;
39958;SDS011;25639;53.634;9.880;2022-07-01T00:35:26;4.70;;;2.70;;
39958;SDS011;25639;53.634;9.880;2022-07-01T00:37:52;7.35;;;3.03;;
39958;SDS011;25639;53.634;9.880;2022-07-01T00:40:17;4.72;;;2.70;;
39958;SDS011;25639;53.634;9.880;2022-07-01T00:42:42;7.28;;;3.38;;
39958;SDS011;25639;53.634;9.880;2022-07-01T00:45:09;6.53;;;3.30;;
39958;SDS011;25639;53.634;9.880;2022-07-01T00:47:35;5.22;;;3.17;;
39958;SDS011;25639;53.634;9.880;2022-07-01T00:50:01;10.18;;;3.58;;
39958;SDS011;25639;53.634;9.880;2022-07-01T00:52:31;8.07;;;3.28;;
39958;SDS011;25639;53.634;9.880;2022-07-01T00:54:57;5.47;;;3.30;;
39958;SDS011;25639;53.634;9.880;2022-07-01T00:57:29;6.45;;;3.22;;
39958;SDS011;25639;53.634;9.880;2022-07-01T00:59:55;6.80;;;3.17;;
39958;SDS011;25639;53.634;9.880;2022-07-01T01:02:21;6.57;;;3.17;;
39958;SDS011;25639;53.634;9.880;2022-07-01T01:04:47;4.65;;;3.25;;
39958;SDS011;25639;53.634;9.880;2022-07-01T01:07:12;4.72;;;2.95;;
39958;SDS011;25639;53.634;9.880;2022-07-01T01:09:38;8.88;;;3.63;;
39958;SDS011;25639;53.634;9.880;2022-07-01T01:12:04;8.93;;;3.53;;
39958;SDS011;25639;53.634;9.880;2022-07-01T01:14:30;6.20;;;3.97;;
39958;SDS011;25639;53.634;9.880;2022-07-01T01:17:08;9.10;;;3.10;;
39958;SDS011;25639;53.634;9.880;2022-07-01T01:19:33;12.45;;;3.35;;
39958;SDS011;25639;53.634;9.880;2022-07-01T01:21:59;7.30;;;3.30;;
39958;SDS011;25639;53.634;9.880;2022-07-01T01:24:24;8.55;;;3.50;;
39958;SDS011;25639;53.634;9.880;2022-07-01T01:26:49;8.32;;;3.60;;
39958;SDS011;25639;53.634;9.880;2022-07-01T01:29:15;6.18;;;3.40;;
39958;SDS011;25639;53.634;9.880;2022-07-01T01:31:41;8.82;;;3.38;;
39958;SDS011;25639;53.634;9.880;2022-07-01T01:34:06;6.82;;;3.65;;
39958;SDS011;25639;53.634;9.880;2022-07-01T01:36:31;5.80;;;3.45;;
39958;SDS011;25639;53.634;9.880;2022-07-01T01:38:57;6.22;;;3.83;;
39958;SDS011;25639;53.634;9.880;2022-07-01T01:41:25;9.27;;;4.55;;
39958;SDS011;25639;53.634;9.880;2022-07-01T01:43:51;6.90;;;3.95;;
39958;SDS011;25639;53.634;9.880;2022-07-01T01:46:16;7.13;;;3.38;;
39958;SDS011;25639;53.634;9.880;2022-07-01T01:48:41;6.07;;;3.38;;
39958;SDS011;25639;53.634;9.880;2022-07-01T01:51:06;5.38;;;3.97;;
39958;SDS011;25639;53.634;9.880;2022-07-01T01:53:32;5.63;;;3.45;;
39958;SDS011;25639;53.634;9.880;2022-07-01T01:55:57;7.35;;;3.83;;
39958;SDS011;25639;53.634;9.880;2022-07-01T01:58:23;5.18;;;3.58;;
39958;SDS011;25639;53.634;9.880;2022-07-01T02:00:48;7.18;;;3.92;;
39958;SDS011;25639;53.634;9.880;2022-07-01T02:03:13;7.32;;;3.38;;
39958;SDS011;25639;53.634;9.880;2022-07-01T02:05:38;5.97;;;3.70;;
39958;SDS011;25639;53.634;9.880;2022-07-01T02:08:04;5.63;;;3.92;;
39958;SDS011;25639;53.634;9.880;2022-07-01T02:10:29;6.93;;;4.10;;
39958;SDS011;25639;53.634;9.880;2022-07-01T02:12:54;6.10;;;3.85;;
39958;SDS011;25639;53.634;9.880;2022-07-01T02:15:20;6.97;;;3.80;;
39958;SDS011;25639;53.634;9.880;2022-07-01T02:17:45;5.22;;;3.38;;
39958;SDS011;25639;53.634;9.880;2022-07-01T02:20:10;5.65;;;3.40;;
39958;SDS011;25639;53.634;9.880;2022-07-01T02:22:39;6.68;;;4.20;;
39958;SDS011;25639;53.634;9.880;2022-07-01T02:25:05;10.27;;;4.45;;
39958;SDS011;25639;53.634;9.880;2022-07-01T02:27:31;7.97;;;4.03;;
39958;SDS011;25639;53.634;9.880;2022-07-01T02:29:56;7.00;;;4.07;;
39958;SDS011;25639;53.634;9.880;2022-07-01T02:32:21;6.47;;;4.00;;
39958;SDS011;25639;53.634;9.880;2022-07-01T02:34:47;7.45;;;4.30;;
39958;SDS011;25639;53.634;9.880;2022-07-01T02:37:12;7.43;;;3.83;;
39958;SDS011;25639;53.634;9.880;2022-07-01T02:39:37;6.10;;;4.35;;
39958;SDS011;25639;53.634;9.880;2022-07-01T02:42:03;8.43;;;4.32;;
39958;SDS011;25639;53.634;9.880;2022-07-01T02:44:47;4.75;;;3.58;;
39958;SDS011;25639;53.634;9.880;2022-07-01T02:47:12;8.02;;;4.97;;
39958;SDS011;25639;53.634;9.880;2022-07-01T02:49:38;8.48;;;5.03;;
39958;SDS011;25639;53.634;9.880;2022-07-01T02:52:04;6.95;;;4.25;;
39958;SDS011;25639;53.634;9.880;2022-07-01T02:54:29;8.43;;;4.82;;
39958;SDS011;25639;53.634;9.880;2022-07-01T02:56:55;7.35;;;3.90;;
39958;SDS011;25639;53.634;9.880;2022-07-01T02:59:20;7.43;;;4.80;;
39958;SDS011;25639;53.634;9.880;2022-07-01T03:01:45;8.02;;;4.85;;
39958;SDS011;25639;53.634;9.880;2022-07-01T03:04:11;8.57;;;4.90;;
39958;SDS011;25639;53.634;9.880;2022-07-01T03:06:36;6.65;;;5.00;;
39958;SDS011;25639;53.634;9.880;2022-07-01T03:09:01;6.10;;;4.30;;
39958;SDS011;25639;53.634;9.880;2022-07-01T03:11:27;15.52;;;5.50;;
39958;SDS011;25639;53.634;9.880;2022-07-01T03:13:53;10.15;;;4.85;;
39958;SDS011;25639;53.634;9.880;2022-07-01T03:16:18;8.70;;;5.20;;
39958;SDS011;25639;53.634;9.880;2022-07-01T03:18:43;7.10;;;5.25;;
39958;SDS011;25639;53.634;9.880;2022-07-01T03:21:09;9.02;;;5.15;;
39958;SDS011;25639;53.634;9.880;2022-07-01T03:23:34;9.55;;;5.68;;
39958;SDS011;25639;53.634;9.880;2022-07-01T03:25:59;6.43;;;5.25;;
39958;SDS011;25639;53.634;9.880;2022-07-01T03:28:25;9.93;;;5.38;;
39958;SDS011;25639;53.634;9.880;2022-07-01T03:30:50;11.13;;;6.95;;
39958;SDS011;25639;53.634;9.880;2022-07-01T03:33:15;10.88;;;8.18;;
39958;SDS011;25639;53.634;9.880;2022-07-01T03:35:40;16.13;;;10.18;;
39958;SDS011;25639;53.634;9.880;2022-07-01T03:38:11;16.23;;;11.70;;
39958;SDS011;25639;53.634;9.880;2022-07-01T03:40:37;15.13;;;10.27;;
39958;SDS011;25639;53.634;9.880;2022-07-01T03:43:03;12.60;;;9.70;;
39958;SDS011;25639;53.634;9.880;2022-07-01T03:45:29;13.65;;;9.48;;
39958;SDS011;25639;53.634;9.880;2022-07-01T03:47:55;12.00;;;8.32;;
39958;SDS011;25639;53.634;9.880;2022-07-01T03:50:21;11.98;;;9.10;;
39958;SDS011;25639;53.634;9.880;2022-07-01T03:52:47;13.23;;;8.45;;
39958;SDS011;25639;53.634;9.880;2022-07-01T03:55:12;10.18;;;8.23;;
39958;SDS011;25639;53.634;9.880;2022-07-01T03:57:38;13.55;;;7.75;;
39958;SDS011;25639;53.634;9.880;2022-07-01T04:00:04;10.73;;;7.85;;
39958;SDS011;25639;53.634;9.880;2022-07-01T04:02:31;14.68;;;9.77;;
39958;SDS011;25639;53.634;9.880;2022-07-01T04:04:56;12.27;;;8.07;;
39958;SDS011;25639;53.634;9.880;2022-07-01T04:07:22;12.23;;;8.38;;
39958;SDS011;25639;53.634;9.880;2022-07-01T04:09:48;11.85;;;8.20;;
39958;SDS011;25639;53.634;9.880;2022-07-01T04:12:13;10.82;;;8.00;;
39958;SDS011;25639;53.634;9.880;2022-07-01T04:14:39;10.30;;;8.05;;
39958;SDS011;25639;53.634;9.880;2022-07-01T04:17:05;11.00;;;7.85;;
39958;SDS011;25639;53.634;9.880;2022-07-01T04:19:30;10.27;;;8.32;;
39958;SDS011;25639;53.634;9.880;2022-07-01T04:21:56;11.05;;;8.43;;
39958;SDS011;25639;53.634;9.880;2022-07-01T04:24:39;10.82;;;8.98;;
39958;SDS011;25639;53.634;9.880;2022-07-01T04:27:05;9.20;;;7.90;;
39958;SDS011;25639;53.634;9.880;2022-07-01T04:29:30;8.70;;;7.40;;
39958;SDS011;25639;53.634;9.880;2022-07-01T04:31:56;10.18;;;8.20;;
39958;SDS011;25639;53.634;9.880;2022-07-01T04:34:22;9.32;;;7.38;;
39958;SDS011;25639;53.634;9.880;2022-07-01T04:36:48;11.65;;;8.70;;
39958;SDS011;25639;53.634;9.880;2022-07-01T04:39:13;18.50;;;10.27;;
39958;SDS011;25639;53.634;9.880;2022-07-01T04:41:38;13.25;;;8.50;;
39958;SDS011;25639;53.634;9.880;2022-07-01T04:46:48;17.48;;;8.63;;
39958;SDS011;25639;53.634;9.880;2022-07-01T04:49:13;22.02;;;9.15;;
39958;SDS011;25639;53.634;9.880;2022-07-01T04:51:38;23.80;;;10.00;;
39958;SDS011;25639;53.634;9.880;2022-07-01T04:54:04;26.50;;;9.60;;
39958;SDS011;25639;53.634;9.880;2022-07-01T04:56:32;23.52;;;9.73;;
39958;SDS011;25639;53.634;9.880;2022-07-01T04:58:59;20.40;;;8.90;;
39958;SDS011;25639;53.634;9.880;2022-07-01T05:01:25;17.25;;;8.52;;
39958;SDS011;25639;53.634;9.880;2022-07-01T05:03:50;20.55;;;8.98;;
39958;SDS011;25639;53.634;9.880;2022-07-01T05:06:16;21.35;;;9.27;;
39958;SDS011;25639;53.634;9.880;2022-07-01T05:08:41;27.50;;;9.30;;
39958;SDS011;25639;53.634;9.880;2022-07-01T05:11:07;32.10;;;10.18;;
39958;SDS011;25639;53.634;9.880;2022-07-01T05:13:32;23.17;;;10.02;;
39958;SDS011;25639;53.634;9.880;2022-07-01T05:15:59;28.27;;;10.13;;
39958;SDS011;25639;53.634;9.880;2022-07-01T05:18:25;22.15;;;9.10;;
39958;SDS011;25639;53.634;9.880;2022-07-01T05:21:09;20.13;;;8.40;;
39958;SDS011;25639;53.634;9.880;2022-07-01T05:23:53;21.58;;;7.45;;
39958;SDS011;25639;53.634;9.880;2022-07-01T05:26:18;15.80;;;6.85;;
39958;SDS011;25639;53.634;9.880;2022-07-01T05:28:44;21.88;;;6.70;;
39958;SDS011;25639;53.634;9.880;2022-07-01T05:31:10;16.83;;;5.95;;
39958;SDS011;25639;53.634;9.880;2022-07-01T05:33:35;15.13;;;4.90;;
39958;SDS011;25639;53.634;9.880;2022-07-01T05:36:01;19.45;;;4.97;;
39958;SDS011;25639;53.634;9.880;2022-07-01T05:38:26;13.20;;;3.85;;
39958;SDS011;25639;53.634;9.880;2022-07-01T05:40:52;13.25;;;4.18;;
39958;SDS011;25639;53.634;9.880;2022-07-01T05:43:18;9.32;;;3.47;;
39958;SDS011;25639;53.634;9.880;2022-07-01T05:45:44;14.88;;;3.40;;
39958;SDS011;25639;53.634;9.880;2022-07-01T05:48:09;7.00;;;3.28;;
39958;SDS011;25639;53.634;9.880;2022-07-01T05:50:34;14.73;;;3.30;;
39958;SDS011;25639;53.634;9.880;2022-07-01T05:53:00;6.60;;;3.17;;
39958;SDS011;25639;53.634;9.880;2022-07-01T05:55:25;13.38;;;3.30;;
39958;SDS011;25639;53.634;9.880;2022-07-01T05:57:51;9.35;;;3.72;;
39958;SDS011;25639;53.634;9.880;2022-07-01T06:00:17;8.90;;;2.97;;
39958;SDS011;25639;53.634;9.880;2022-07-01T06:02:42;6.40;;;3.40;;
39958;SDS011;25639;53.634;9.880;2022-07-01T06:05:08;11.27;;;2.97;;
39958;SDS011;25639;53.634;9.880;2022-07-01T06:07:33;9.90;;;3.10;;
39958;SDS011;25639;53.634;9.880;2022-07-01T06:09:58;11.73;;;3.08;;
39958;SDS011;25639;53.634;9.880;2022-07-01T06:12:24;11.82;;;3.10;;
39958;SDS011;25639;53.634;9.880;2022-07-01T06:14:49;7.93;;;2.75;;
39958;SDS011;25639;53.634;9.880;2022-07-01T06:17:15;8.57;;;3.13;;
39958;SDS011;25639;53.634;9.880;2022-07-01T06:19:41;7.13;;;2.92;;
39958;SDS011;25639;53.634;9.880;2022-07-01T06:22:07;8.52;;;2.22;;
39958;SDS011;25639;53.634;9.880;2022-07-01T06:24:33;9.32;;;2.47;;
39958;SDS011;25639;53.634;9.880;2022-07-01T06:26:58;4.85;;;1.70;;
39958;SDS011;25639;53.634;9.880;2022-07-01T06:29:25;10.23;;;2.65;;
39958;SDS011;25639;53.634;9.880;2022-07-01T06:31:52;5.80;;;2.05;;
39958;SDS011;25639;53.634;9.880;2022-07-01T06:34:18;5.63;;;1.95;;
39958;SDS011;25639;53.634;9.880;2022-07-01T06:36:43;5.05;;;1.95;;
39958;SDS011;25639;53.634;9.880;2022-07-01T06:39:08;6.97;;;1.60;;
39958;SDS011;25639;53.634;9.880;2022-07-01T06:41:34;9.60;;;2.13;;
39958;SDS011;25639;53.634;9.880;2022-07-01T06:44:02;8.70;;;2.15;;
39958;SDS011;25639;53.634;9.880;2022-07-01T06:46:29;13.75;;;2.70;;
39958;SDS011;25639;53.634;9.880;2022-07-01T06:48:55;6.13;;;2.33;;
39958;SDS011;25639;53.634;9.880;2022-07-01T06:51:23;8.32;;;2.20;;
39958;SDS011;25639;53.634;9.880;2022-07-01T06:53:49;7.68;;;2.33;;
39958;SDS011;25639;53.634;9.880;2022-07-01T06:56:15;10.05;;;3.13;;
39958;SDS011;25639;53.634;9.880;2022-07-01T06:58:40;7.28;;;2.75;;
39958;SDS011;25639;53.634;9.880;2022-07-01T07:01:07;6.70;;;2.80;;
39958;SDS011;25639;53.634;9.880;2022-07-01T07:03:32;8.15;;;3.00;;
39958;SDS011;25639;53.634;9.880;2022-07-01T07:06:00;7.78;;;2.55;;
39958;SDS011;25639;53.634;9.880;2022-07-01T07:08:27;6.38;;;2.60;;
39958;SDS011;25639;53.634;9.880;2022-07-01T07:10:53;8.07;;;2.83;;
39958;SDS011;25639;53.634;9.880;2022-07-01T07:13:18;7.50;;;2.78;;
39958;SDS011;25639;53.634;9.880;2022-07-01T07:15:44;9.60;;;3.28;;
39958;SDS011;25639;53.634;9.880;2022-07-01T07:18:09;10.05;;;2.88;;
39958;SDS011;25639;53.634;9.880;2022-07-01T07:20:35;6.70;;;3.28;;
39958;SDS011;25639;53.634;9.880;2022-07-01T07:23:00;10.50;;;2.70;;
39958;SDS011;25639;53.634;9.880;2022-07-01T07:25:25;5.97;;;2.65;;
39958;SDS011;25639;53.634;9.880;2022-07-01T07:27:51;5.80;;;2.60;;
39958;SDS011;25639;53.634;9.880;2022-07-01T07:30:17;11.15;;;2.78;;
39958;SDS011;25639;53.634;9.880;2022-07-01T07:32:42;6.20;;;2.50;;
39958;SDS011;25639;53.634;9.880;2022-07-01T07:35:08;7.10;;;2.78;;
39958;SDS011;25639;53.634;9.880;2022-07-01T07:37:34;5.50;;;2.55;;
39958;SDS011;25639;53.634;9.880;2022-07-01T07:39:59;2.65;;;2.05;;
39958;SDS011;25639;53.634;9.880;2022-07-01T07:42:26;6.80;;;2.30;;
39958;SDS011;25639;53.634;9.880;2022-07-01T07:44:52;5.68;;;2.55;;
39958;SDS011;25639;53.634;9.880;2022-07-01T07:47:17;4.85;;;2.42;;
39958;SDS011;25639;53.634;9.880;2022-07-01T07:49:43;4.28;;;2.60;;
39958;SDS011;25639;53.634;9.880;2022-07-01T07:52:08;4.32;;;2.50;;
39958;SDS011;25639;53.634;9.880;2022-07-01T07:54:33;5.93;;;2.47;;
39958;SDS011;25639;53.634;9.880;2022-07-01T07:57:00;6.18;;;2.70;;
39958;SDS011;25639;53.634;9.880;2022-07-01T07:59:25;8.80;;;2.40;;
39958;SDS011;25639;53.634;9.880;2022-07-01T08:01:50;7.78;;;2.80;;
39958;SDS011;25639;53.634;9.880;2022-07-01T08:04:16;3.63;;;2.55;;
39958;SDS011;25639;53.634;9.880;2022-07-01T08:06:41;3.92;;;2.92;;
39958;SDS011;25639;53.634;9.880;2022-07-01T08:09:06;5.05;;;2.75;;
39958;SDS011;25639;53.634;9.880;2022-07-01T08:11:32;5.88;;;2.92;;
39958;SDS011;25639;53.634;9.880;2022-07-01T08:13:57;6.15;;;3.53;;
39958;SDS011;25639;53.634;9.880;2022-07-01T08:16:23;6.15;;;3.78;;
39958;SDS011;25639;53.634;9.880;2022-07-01T08:18:49;4.75;;;3.38;;
39958;SDS011;25639;53.634;9.880;2022-07-01T08:21:14;4.63;;;3.40;;
39958;SDS011;25639;53.634;9.880;2022-07-01T08:23:39;4.22;;;3.10;;
39958;SDS011;25639;53.634;9.880;2022-07-01T08:26:04;4.60;;;3.53;;
39958;SDS011;25639;53.634;9.880;2022-07-01T08:28:30;5.85;;;3.50;;
39958;SDS011;25639;53.634;9.880;2022-07-01T08:30:55;7.03;;;4.20;;
39958;SDS011;25639;53.634;9.880;2022-07-01T08:33:20;6.38;;;3.60;;
39958;SDS011;25639;53.634;9.880;2022-07-01T08:35:46;6.18;;;3.63;;
39958;SDS011;25639;53.634;9.880;2022-07-01T08:38:12;6.00;;;4.18;;
39958;SDS011;25639;53.634;9.880;2022-07-01T08:40:37;4.85;;;3.47;;
39958;SDS011;25639;53.634;9.880;2022-07-01T08:43:03;5.10;;;3.80;;
39958;SDS011;25639;53.634;9.880;2022-07-01T08:45:30;7.32;;;4.30;;
39958;SDS011;25639;53.634;9.880;2022-07-01T08:47:57;5.45;;;4.30;;
39958;SDS011;25639;53.634;9.880;2022-07-01T08:50:26;4.25;;;3.85;;
39958;SDS011;25639;53.634;9.880;2022-07-01T08:52:53;7.80;;;3.92;;
39958;SDS011;25639;53.634;9.880;2022-07-01T08:55:21;6.97;;;4.10;;
39958;SDS011;25639;53.634;9.880;2022-07-01T08:57:47;6.53;;;4.10;;
39958;SDS011;25639;53.634;9.880;2022-07-01T09:00:13;8.23;;;3.95;;
39958;SDS011;25639;53.634;9.880;2022-07-01T09:05:20;5.03;;;4.43;;
39958;SDS011;25639;53.634;9.880;2022-07-01T09:07:47;6.75;;;3.72;;
39958;SDS011;25639;53.634;9.880;2022-07-01T09:10:14;8.98;;;3.92;;
39958;SDS011;25639;53.634;9.880;2022-07-01T09:12:43;5.47;;;3.95;;
39958;SDS011;25639;53.634;9.880;2022-07-01T09:17:46;7.53;;;4.05;;
39958;SDS011;25639;53.634;9.880;2022-07-01T09:20:31;5.00;;;3.85;;
39958;SDS011;25639;53.634;9.880;2022-07-01T09:25:40;6.88;;;4.13;;
39958;SDS011;25639;53.634;9.880;2022-07-01T09:28:11;6.57;;;4.07;;
39958;SDS011;25639;53.634;9.880;2022-07-01T09:30:42;5.95;;;4.03;;
39958;SDS011;25639;53.634;9.880;2022-07-01T09:33:10;6.72;;;4.45;;
39958;SDS011;25639;53.634;9.880;2022-07-01T09:35:43;6.93;;;4.40;;
39958;SDS011;25639;53.634;9.880;2022-07-01T09:38:11;7.57;;;4.32;;
39958;SDS011;25639;53.634;9.880;2022-07-01T09:43:20;5.40;;;4.20;;
39958;SDS011;25639;53.634;9.880;2022-07-01T09:45:52;7.50;;;4.45;;
39958;SDS011;25639;53.634;9.880;2022-07-01T09:48:23;6.65;;;4.00;;
39958;SDS011;25639;53.634;9.880;2022-07-01T09:50:50;4.97;;;4.22;;
39958;SDS011;25639;53.634;9.880;2022-07-01T09:53:16;7.90;;;4.35;;
39958;SDS011;25639;53.634;9.880;2022-07-01T09:55:41;5.82;;;4.10;;
39958;SDS011;25639;53.634;9.880;2022-07-01T09:58:06;7.18;;;4.28;;
39958;SDS011;25639;53.634;9.880;2022-07-01T10:00:32;8.75;;;4.70;;
39958;SDS011;25639;53.634;9.880;2022-07-01T10:02:59;6.00;;;4.10;;
39958;SDS011;25639;53.634;9.880;2022-07-01T10:05:26;7.07;;;3.90;;
39958;SDS011;25639;53.634;9.880;2022-07-01T10:10:47;6.28;;;4.15;;
39958;SDS011;25639;53.634;9.880;2022-07-01T10:13:17;8.40;;;4.28;;
39958;SDS011;25639;53.634;9.880;2022-07-01T10:15:46;6.05;;;4.78;;
39958;SDS011;25639;53.634;9.880;2022-07-01T10:18:26;8.60;;;5.43;;
39958;SDS011;25639;53.634;9.880;2022-07-01T10:20:53;9.07;;;4.32;;
39958;SDS011;25639;53.634;9.880;2022-07-01T10:23:21;6.80;;;4.75;;
39958;SDS011;25639;53.634;9.880;2022-07-01T10:25:49;9.18;;;5.03;;
39958;SDS011;25639;53.634;9.880;2022-07-01T10:31:04;5.82;;;4.57;;
39958;SDS011;25639;53.634;9.880;2022-07-01T10:33:50;7.13;;;4.00;;
39958;SDS011;25639;53.634;9.880;2022-07-01T10:36:33;6.30;;;4.90;;
39958;SDS011;25639;53.634;9.880;2022-07-01T10:41:26;9.15;;;4.88;;
39958;SDS011;25639;53.634;9.880;2022-07-01T10:43:55;10.60;;;4.68;;
39958;SDS011;25639;53.634;9.880;2022-07-01T10:49:10;5.47;;;4.95;;
39958;SDS011;25639;53.634;9.880;2022-07-01T10:51:58;10.68;;;5.63;;
39958;SDS011;25639;53.634;9.880;2022-07-01T10:59:41;7.93;;;6.13;;
39958;SDS011;25639;53.634;9.880;2022-07-01T11:02:13;12.20;;;7.28;;
39958;SDS011;25639;53.634;9.880;2022-07-01T11:04:40;11.52;;;7.03;;
39958;SDS011;25639;53.634;9.880;2022-07-01T11:07:05;13.55;;;8.38;;
39958;SDS011;25639;53.634;9.880;2022-07-01T11:09:31;11.85;;;6.55;;
39958;SDS011;25639;53.634;9.880;2022-07-01T11:11:56;10.90;;;7.47;;
39958;SDS011;25639;53.634;9.880;2022-07-01T11:14:22;8.80;;;7.45;;
39958;SDS011;25639;53.634;9.880;2022-07-01T11:16:47;10.80;;;7.78;;
39958;SDS011;25639;53.634;9.880;2022-07-01T11:19:12;12.07;;;7.63;;
39958;SDS011;25639;53.634;9.880;2022-07-01T11:21:38;13.73;;;8.07;;
39958;SDS011;25639;53.634;9.880;2022-07-01T11:24:08;9.63;;;7.20;;
39958;SDS011;25639;53.634;9.880;2022-07-01T11:26:34;9.77;;;5.80;;
39958;SDS011;25639;53.634;9.880;2022-07-01T11:28:59;9.13;;;6.40;;
39958;SDS011;25639;53.634;9.880;2022-07-01T11:31:28;10.52;;;6.93;;
39958;SDS011;25639;53.634;9.880;2022-07-01T11:33:55;11.95;;;7.40;;
39958;SDS011;25639;53.634;9.880;2022-07-01T11:36:20;8.35;;;6.65;;
39958;SDS011;25639;53.634;9.880;2022-07-01T11:41:52;8.70;;;6.03;;
39958;SDS011;25639;53.634;9.880;2022-07-01T11:44:32;6.68;;;5.60;;
39958;SDS011;25639;53.634;9.880;2022-07-01T11:46:59;8.52;;;5.47;;
39958;SDS011;25639;53.634;9.880;2022-07-01T11:49:26;9.18;;;6.65;;
39958;SDS011;25639;53.634;9.880;2022-07-01T11:52:09;8.18;;;5.82;;
39958;SDS011;25639;53.634;9.880;2022-07-01T11:54:37;11.18;;;6.20;;
39958;SDS011;25639;53.634;9.880;2022-07-01T11:57:13;8.40;;;5.78;;
39958;SDS011;25639;53.634;9.880;2022-07-01T11:59:41;7.95;;;6.38;;
39958;SDS011;25639;53.634;9.880;2022-07-01T12:02:08;11.52;;;5.47;;
39958;SDS011;25639;53.634;9.880;2022-07-01T12:04:36;11.02;;;6.72;;
39958;SDS011;25639;53.634;9.880;2022-07-01T12:07:02;11.52;;;6.18;;
39958;SDS011;25639;53.634;9.880;2022-07-01T12:09:27;8.13;;;5.60;;
39958;SDS011;25639;53.634;9.880;2022-07-01T12:11:53;9.38;;;5.30;;
39958;SDS011;25639;53.634;9.880;2022-07-01T12:14:25;10.32;;;6.20;;
39958;SDS011;25639;53.634;9.880;2022-07-01T12:19:19;8.50;;;5.85;;
39958;SDS011;25639;53.634;9.880;2022-07-01T12:21:51;11.40;;;6.10;;
39958;SDS011;25639;53.634;9.880;2022-07-01T12:24:18;9.18;;;5.93;;
39958;SDS011;25639;53.634;9.880;2022-07-01T12:26:53;12.27;;;7.10;;
39958;SDS011;25639;53.634;9.880;2022-07-01T12:29:28;15.38;;;6.65;;
39958;SDS011;25639;53.634;9.880;2022-07-01T12:32:00;10.95;;;6.20;;
39958;SDS011;25639;53.634;9.880;2022-07-01T12:34:37;8.98;;;6.55;;
39958;SDS011;25639;53.634;9.880;2022-07-01T12:37:07;9.43;;;7.32;;
39958;SDS011;25639;53.634;9.880;2022-07-01T12:39:41;11.38;;;7.50;;
39958;SDS011;25639;53.634;9.880;2022-07-01T12:42:27;9.57;;;6.97;;
39958;SDS011;25639;53.634;9.880;2022-07-01T12:44:59;11.43;;;8.18;;
39958;SDS011;25639;53.634;9.880;2022-07-01T12:47:30;12.48;;;7.78;;
39958;SDS011;25639;53.634;9.880;2022-07-01T12:53:09;12.27;;;7.13;;
39958;SDS011;25639;53.634;9.880;2022-07-01T12:58:09;9.68;;;5.93;;
39958;SDS011;25639;53.634;9.880;2022-07-01T13:00:40;11.88;;;6.50;;
39958;SDS011;25639;53.634;9.880;2022-07-01T13:03:07;9.13;;;6.10;;
39958;SDS011;25639;53.634;9.880;2022-07-01T13:05:34;12.25;;;5.95;;
39958;SDS011;25639;53.634;9.880;2022-07-01T13:08:04;7.72;;;5.45;;
39958;SDS011;25639;53.634;9.880;2022-07-01T13:10:30;12.00;;;5.47;;
39958;SDS011;25639;53.634;9.880;2022-07-01T13:12:56;7.28;;;5.35;;
39958;SDS011;25639;53.634;9.880;2022-07-01T13:15:22;8.57;;;5.03;;
39958;SDS011;25639;53.634;9.880;2022-07-01T13:17:47;8.20;;;5.40;;
39958;SDS011;25639;53.634;9.880;2022-07-01T13:20:13;10.52;;;6.25;;
39958;SDS011;25639;53.634;9.880;2022-07-01T13:22:39;8.88;;;6.05;;
39958;SDS011;25639;53.634;9.880;2022-07-01T13:25:06;10.77;;;5.22;;
39958;SDS011;25639;53.634;9.880;2022-07-01T13:27:32;7.20;;;4.63;;
39958;SDS011;25639;53.634;9.880;2022-07-01T13:29:58;9.25;;;4.95;;
39958;SDS011;25639;53.634;9.880;2022-07-01T13:32:23;6.43;;;4.38;;
39958;SDS011;25639;53.634;9.880;2022-07-01T13:34:49;6.63;;;4.82;;
39958;SDS011;25639;53.634;9.880;2022-07-01T13:37:15;7.57;;;5.07;;
39958;SDS011;25639;53.634;9.880;2022-07-01T13:39:40;6.68;;;4.75;;
39958;SDS011;25639;53.634;9.880;2022-07-01T13:42:06;7.53;;;5.03;;
39958;SDS011;25639;53.634;9.880;2022-07-01T13:44:31;7.95;;;5.30;;
39958;SDS011;25639;53.634;9.880;2022-07-01T13:46:57;7.60;;;4.97;;
39958;SDS011;25639;53.634;9.880;2022-07-01T13:49:22;8.80;;;5.50;;
39958;SDS011;25639;53.634;9.880;2022-07-01T13:51:48;7.68;;;5.25;;
39958;SDS011;25639;53.634;9.880;2022-07-01T13:54:13;8.05;;;5.00;;
39958;SDS011;25639;53.634;9.880;2022-07-01T13:56:39;9.02;;;6.75;;
39958;SDS011;25639;53.634;9.880;2022-07-01T13:59:04;6.90;;;5.30;;
39958;SDS011;25639;53.634;9.880;2022-07-01T14:01:29;6.63;;;5.30;;
39958;SDS011;25639;53.634;9.880;2022-07-01T14:03:56;8.23;;;5.47;;
39958;SDS011;25639;53.634;9.880;2022-07-01T14:06:21;8.75;;;5.85;;
39958;SDS011;25639;53.634;9.880;2022-07-01T14:08:47;8.52;;;5.95;;
39958;SDS011;25639;53.634;9.880;2022-07-01T14:11:12;7.82;;;5.20;;
39958;SDS011;25639;53.634;9.880;2022-07-01T14:13:38;8.18;;;5.55;;
39958;SDS011;25639;53.634;9.880;2022-07-01T14:16:05;8.80;;;4.93;;
39958;SDS011;25639;53.634;9.880;2022-07-01T14:18:32;7.40;;;5.40;;
39958;SDS011;25639;53.634;9.880;2022-07-01T14:20:58;8.57;;;4.60;;
39958;SDS011;25639;53.634;9.880;2022-07-01T14:23:25;7.90;;;4.97;;
39958;SDS011;25639;53.634;9.880;2022-07-01T14:25:50;6.88;;;4.60;;
39958;SDS011;25639;53.634;9.880;2022-07-01T14:28:15;9.35;;;5.22;;
39958;SDS011;25639;53.634;9.880;2022-07-01T14:30:41;10.15;;;5.25;;
39958;SDS011;25639;53.634;9.880;2022-07-01T14:33:06;6.28;;;5.40;;
39958;SDS011;25639;53.634;9.880;2022-07-01T14:35:31;8.38;;;4.50;;
39958;SDS011;25639;53.634;9.880;2022-07-01T14:37:57;8.90;;;5.55;;
39958;SDS011;25639;53.634;9.880;2022-07-01T14:40:23;7.10;;;5.43;;
39958;SDS011;25639;53.634;9.880;2022-07-01T14:42:49;9.32;;;5.55;;
39958;SDS011;25639;53.634;9.880;2022-07-01T14:45:14;7.25;;;4.97;;
39958;SDS011;25639;53.634;9.880;2022-07-01T14:47:40;7.70;;;5.22;;
39958;SDS011;25639;53.634;9.880;2022-07-01T14:50:06;10.90;;;6.07;;
39958;SDS011;25639;53.634;9.880;2022-07-01T14:52:32;7.88;;;5.68;;
39958;SDS011;25639;53.634;9.880;2022-07-01T14:54:58;12.65;;;6.03;;
39958;SDS011;25639;53.634;9.880;2022-07-01T14:57:23;7.88;;;5.03;;
39958;SDS011;25639;53.634;9.880;2022-07-01T14:59:49;9.80;;;5.50;;
39958;SDS011;25639;53.634;9.880;2022-07-01T15:02:14;5.53;;;4.20;;
39958;SDS011;25639;53.634;9.880;2022-07-01T15:04:40;8.65;;;5.05;;
39958;SDS011;25639;53.634;9.880;2022-07-01T15:07:05;6.63;;;5.30;;
39958;SDS011;25639;53.634;9.880;2022-07-01T15:09:31;6.68;;;3.95;;
39958;SDS011;25639;53.634;9.880;2022-07-01T15:11:56;7.53;;;4.60;;
39958;SDS011;25639;53.634;9.880;2022-07-01T15:14:22;11.93;;;5.10;;
39958;SDS011;25639;53.634;9.880;2022-07-01T15:16:47;6.88;;;4.22;;
39958;SDS011;25639;53.634;9.880;2022-07-01T15:19:12;9.55;;;4.93;;
39958;SDS011;25639;53.634;9.880;2022-07-01T15:21:38;10.02;;;5.70;;